Time;durP1;ratioP1;P1;durP2;ratioP2;P2;SDS_P1;SDS_P2;PMS_P1;PMS_P2;Temp;Humidity;BMP_temperature;BMP_pressure;BME280_temperature;BME280_humidity;BME280_pressure;Samples;Min_cycle;Max_cycle;Signal;HPM_P1;HPM_P2
2023/01/21 00:06:19;;;;;;;;;;;;;;;;;;;;;
2023/01/21 00:09:03;;;;;;;56.80;22.98;;;-0.10;99.90;;;-1.80;100.00;102202.94;4705888;29;20052;-80
2023/01/21 00:11:29;;;;;;;67.25;23.77;;;0.00;99.90;;;-1.73;100.00;102211.72;4763335;29;20059;-81
2023/01/21 00:14:15;;;;;;;;;;;;;;;;;;;;;
2023/01/21 00:16:44;;;;;;;46.17;19.05;;;0.00;99.90;;;-1.63;100.00;102208.59;4786671;29;20129;-77
2023/01/21 00:19:12;;;;;;;48.97;19.52;;;0.10;99.90;;;-1.61;100.00;102217.25;4857650;29;20050;-81
2023/01/21 00:22:52;;;;;;;47.65;19.88;;;0.10;99.90;;;-1.57;100.00;102218.22;4856903;29;20039;-79
2023/01/21 00:25:38;;;;;;;52.33;18.15;;;0.10;99.90;;;-1.66;100.00;102227.47;4761602;29;20076;-80
2023/01/21 00:28:44;;;;;;;;;;;;;;;;;;;;;
2023/01/21 00:31:41;;;;;;;;;;;;;;;;;;;;;
2023/01/21 00:34:53;;;;;;;57.25;21.95;;;0.00;99.90;;;-1.75;100.00;102241.81;4791707;29;21500;-80
2023/01/21 00:41:58;;;;;;;;;;;;;;;;;;;;;
2023/01/21 00:47:54;;;;;;;;;;;;;;;;;;;;;
2023/01/21 00:51:06;;;;;;;57.53;21.60;;;0.10;99.90;;;-1.64;100.00;102253.34;4713696;29;20382;-80
2023/01/21 00:53:55;;;;;;;;;;;;;;;;;;;;;
2023/01/21 00:59:39;;;;;;;;;;;;;;;;;;;;;
2023/01/21 01:02:42;;;;;;;55.92;21.65;;;0.10;99.90;;;-1.58;100.00;102268.13;4756427;29;20103;-79
2023/01/21 01:05:21;;;;;;;49.63;20.73;;;0.10;99.90;;;-1.59;100.00;102261.22;4725401;29;20083;-80
2023/01/21 01:08:24;;;;;;;;;;;;;;;;;;;;;
2023/01/21 01:10:56;;;;;;;48.70;19.45;;;;;;;-1.55;100.00;102265.63;4718197;29;22008;-80
2023/01/21 01:16:13;;;;;;;62.92;23.13;;;0.10;99.90;;;-1.60;100.00;102265.47;4929832;23;20047;-82
2023/01/21 01:18:42;;;;;;;65.35;23.55;;;0.10;99.90;;;-1.56;100.00;102271.63;4802492;29;20041;-79
2023/01/21 01:21:29;;;;;;;;;;;;;;;;;;;;;
2023/01/21 01:24:15;;;;;;;54.00;22.15;;;0.20;99.90;;;-1.42;100.00;102274.59;4834416;29;21485;-79
2023/01/21 01:27:27;;;;;;;;;;;;;;;;;;;;;
2023/01/21 01:30:07;;;;;;;60.55;22.67;;;2.40;99.90;;;-1.41;100.00;102277.22;4841907;28;20124;-81
2023/01/21 01:32:42;;;;;;;57.75;23.42;;;0.30;99.90;;;-1.36;100.00;102274.75;4792465;29;20062;-80
2023/01/21 01:35:40;;;;;;;70.35;24.65;;;0.30;99.90;;;-1.36;100.00;102270.47;4766070;29;20042;-78
2023/01/21 01:38:34;;;;;;;;;;;;;;;;;;;;;
2023/01/21 01:41:34;;;;;;;58.47;23.35;;;0.30;99.90;;;-1.50;100.00;102264.91;4743619;29;20437;-79
2023/01/21 01:44:09;;;;;;;59.58;22.83;;;0.20;99.90;;;-1.56;100.00;102269.91;4699276;29;20061;-80
2023/01/21 01:47:08;;;;;;;;;;;;;;;;;;;;;
2023/01/21 01:49:44;;;;;;;;;;;;;;;;;;;;;
2023/01/21 01:52:28;;;;;;;;;;;;;;;;;;;;;
2023/01/21 01:58:05;;;;;;;;;;;;;;;;;;;;;
2023/01/21 02:01:17;;;;;;;;;;;;;;;;;;;;;
2023/01/21 02:04:44;;;;;;;;;;;;;;;;;;;;;
2023/01/21 02:10:34;;;;;;;;;;;;;;;;;;;;;
2023/01/21 02:16:55;;;;;;;;;;;;;;;;;;;;;
2023/01/21 02:19:58;;;;;;;62.10;23.30;;;0.10;99.90;;;-1.58;100.00;102288.78;4870375;28;20117;-80
2023/01/21 02:22:51;;;;;;;61.50;23.02;;;0.10;99.90;;;-1.58;100.00;102291.38;4756556;29;20657;-80
2023/01/21 02:29:34;;;;;;;74.75;24.70;;;0.10;99.90;;;-1.61;100.00;102293.88;4781583;28;20028;-80
2023/01/21 02:44:49;;;;;;;71.38;23.50;;;-0.10;99.90;;;-1.96;100.00;102307.50;4746845;29;20057;-80
2023/01/21 02:48:04;;;;;;;78.72;23.25;;;-0.20;99.90;;;-2.11;100.00;102305.31;4837972;28;20057;-80
2023/01/21 02:51:17;;;;;;;;;;;;;;;;;;;;;
2023/01/21 02:54:02;;;;;;;75.57;22.63;;;-0.50;99.90;;;-2.45;100.00;102318.84;4734249;29;20521;-78
2023/01/21 02:59:56;;;;;;;;;;;;;;;;;;;;;
2023/01/21 03:02:53;;;;;;;72.03;21.92;;;-0.80;99.90;;;-2.65;100.00;102325.09;4813370;29;20152;-80
2023/01/21 03:05:49;;;;;;;;;;;;;;;;;;;;;
2023/01/21 03:08:45;;;;;;;73.97;24.25;;;;;;;-2.78;100.00;102324.66;4815092;29;20419;-79
2023/01/21 03:11:24;;;;;;;76.43;23.40;;;-0.90;99.90;;;-2.79;100.00;102333.19;4787110;29;20064;-80
2023/01/21 03:17:13;;;;;;;85.32;23.50;;;-1.00;99.90;;;-2.90;100.00;102325.09;4876672;23;20056;-79
2023/01/21 03:20:41;;;;;;;;;;;;;;;;;;;;;
2023/01/21 03:23:41;;;;;;;56.65;21.42;;;-1.10;99.90;;;-3.02;100.00;102314.41;4837641;28;20505;-79
2023/01/21 03:27:01;;;;;;;;;;;;;;;;;;;;;
2023/01/21 03:29:32;;;;;;;66.75;20.70;;;-1.10;99.90;;;-2.95;100.00;102333.53;4824154;28;20328;-79
2023/01/21 03:32:15;;;;;;;;;;;;;;;;;;;;;
2023/01/21 03:35:05;;;;;;;72.32;22.58;;;;;;;-2.89;100.00;102346.63;4821755;29;20100;-79
2023/01/21 03:37:53;;;;;;;76.72;23.63;;;-1.10;99.90;;;-2.90;100.00;102350.00;4812679;29;20036;-80
2023/01/21 03:41:15;;;;;;;71.93;24.70;;;-1.10;99.90;;;-2.92;100.00;102369.69;4860594;28;20040;-79
2023/01/21 03:43:44;;;;;;;80.78;22.77;;;-1.10;99.90;;;-3.04;100.00;102375.31;4827624;29;20531;-78
2023/01/21 03:46:39;;;;;;;75.82;24.00;;;-1.10;99.90;;;-3.01;100.00;102375.41;4872086;29;20040;-78
2023/01/21 03:49:38;;;;;;;70.95;23.65;;;-1.20;99.90;;;-3.04;100.00;102375.31;4854816;29;20027;-78
2023/01/21 03:52:24;;;;;;;;;;;;;;;;;;;;;
2023/01/21 03:54:53;;;;;;;67.80;22.50;;;-1.20;99.90;;;-3.11;100.00;102373.31;4835132;23;20608;-78
2023/01/21 03:57:21;;;;;;;70.50;23.08;;;-1.30;99.90;;;-3.12;100.00;102369.00;4836894;28;20047;-78
2023/01/21 04:00:12;;;;;;;65.35;23.13;;;-1.30;99.90;;;-3.14;100.00;102368.94;4850667;28;20073;-78
2023/01/21 04:02:38;;;;;;;70.38;24.83;;;;;;;-3.11;100.00;102374.22;4868360;28;20035;-78
2023/01/21 04:05:14;;;;;;;77.43;24.15;;;-1.20;99.90;;;-3.05;100.00;102383.84;4894822;28;20054;-78
2023/01/21 04:07:43;;;;;;;69.30;21.45;;;-1.20;99.90;;;-2.98;100.00;102383.28;4901574;28;20071;-79
2023/01/21 04:10:10;;;;;;;62.70;21.52;;;-1.10;99.90;;;-2.90;100.00;102384.41;4893914;28;20027;-78
2023/01/21 04:12:44;;;;;;;48.97;18.58;;;-1.00;99.90;;;-2.77;100.00;102390.84;4897538;28;20051;-78
2023/01/21 04:15:11;;;;;;;68.93;23.63;;;;;;;-2.64;100.00;102401.59;4879985;28;20043;-79
2023/01/21 04:17:37;;;;;;;67.90;24.35;;;-0.80;99.90;;;-2.56;100.00;102403.63;4907757;28;20125;-78
2023/01/21 04:20:12;;;;;;;82.75;24.13;;;-0.70;99.90;;;-2.47;100.00;102415.97;4879539;28;20145;-79
2023/01/21 04:22:38;;;;;;;78.00;25.20;;;-0.70;99.90;;;-2.41;100.00;102411.00;4881818;28;20048;-78
2023/01/21 04:25:05;;;;;;;92.35;25.75;;;;;;;-2.29;100.00;102416.59;4888650;28;20054;-78
2023/01/21 04:27:31;;;;;;;60.72;21.30;;;-0.50;99.90;;;-2.22;100.00;102412.50;4901495;28;20099;-78
2023/01/21 04:30:03;;;;;;;60.10;21.90;;;-0.40;99.90;;;-2.14;100.00;102405.00;4878242;28;20039;-78
2023/01/21 04:32:32;;;;;;;60.83;18.95;;;-0.40;99.90;;;-2.10;100.00;102399.09;4889631;28;20051;-78
2023/01/21 04:34:58;;;;;;;57.13;19.45;;;-0.30;99.90;;;-2.05;100.00;102407.91;4864468;28;20051;-77
2023/01/21 04:37:33;;;;;;;67.72;22.83;;;-0.20;99.90;;;-1.97;100.00;102408.13;4880813;28;20079;-77
2023/01/21 04:40:01;;;;;;;65.53;21.52;;;-0.20;99.90;;;-1.93;100.00;102402.22;4887344;28;20058;-77
2023/01/21 04:42:27;;;;;;;66.40;24.35;;;-0.10;99.90;;;-1.82;100.00;102410.31;4892008;28;20114;-78
2023/01/21 04:45:01;;;;;;;75.10;25.10;;;0.00;99.90;;;-1.77;100.00;102426.81;4885199;28;20408;-77
2023/01/21 04:47:27;;;;;;;72.70;24.90;;;0.00;99.90;;;-1.74;100.00;102427.81;4899152;28;20062;-77
2023/01/21 04:49:53;;;;;;;77.25;26.17;;;0.10;99.90;;;-1.66;100.00;102428.94;4913051;28;20646;-78
2023/01/21 04:52:19;;;;;;;76.20;26.58;;;0.10;99.90;;;-1.67;100.00;102434.03;4887404;28;20057;-77
2023/01/21 04:54:51;;;;;;;83.13;25.17;;;0.20;99.90;;;-1.56;100.00;102439.53;4883910;28;20109;-77
2023/01/21 04:57:16;;;;;;;87.90;27.65;;;0.20;99.90;;;-1.53;100.00;102444.81;4912706;28;21447;-77
2023/01/21 04:59:42;;;;;;;84.80;26.42;;;0.20;99.90;;;-1.46;100.00;102449.31;4887959;28;20039;-79
2023/01/21 05:02:08;;;;;;;88.43;26.38;;;0.20;99.90;;;-1.45;100.00;102449.38;4893299;28;20099;-77
2023/01/21 05:04:34;;;;;;;85.25;27.33;;;0.30;99.90;;;-1.50;100.00;102447.47;4885701;28;20484;-77
2023/01/21 05:07:06;;;;;;;82.20;27.00;;;0.20;99.90;;;-1.56;100.00;102443.00;4882637;28;20058;-78
2023/01/21 05:09:32;;;;;;;85.93;27.48;;;0.20;99.90;;;-1.63;100.00;102445.34;4883998;28;20063;-77
2023/01/21 05:11:57;;;;;;;90.97;27.02;;;0.10;99.90;;;-1.71;100.00;102448.53;4911669;28;20034;-77
2023/01/21 05:14:23;;;;;;;102.05;27.63;;;0.10;99.90;;;-1.79;100.00;102444.88;4877600;28;20047;-77
2023/01/21 05:16:49;;;;;;;97.07;27.35;;;0.00;99.90;;;-1.86;100.00;102454.13;4883343;28;20038;-77
2023/01/21 05:19:15;;;;;;;120.90;29.67;;;-0.10;99.90;;;-1.95;100.00;102456.41;4876557;28;20181;-77
2023/01/21 05:21:45;;;;;;;99.72;27.83;;;-0.20;99.90;;;-2.13;100.00;102453.22;4897127;28;20039;-77
2023/01/21 05:24:11;;;;;;;101.25;28.08;;;-0.30;99.90;;;-2.28;100.00;102459.63;4874572;28;20043;-77
2023/01/21 05:26:39;;;;;;;108.80;29.65;;;-0.40;99.90;;;-2.30;100.00;102457.81;4884257;28;20779;-78
2023/01/21 05:29:05;;;;;;;104.75;27.95;;;-0.40;99.90;;;-2.36;100.00;102460.19;4894472;28;20053;-77
2023/01/21 05:31:31;;;;;;;104.53;28.02;;;-0.50;99.90;;;-2.37;100.00;102458.44;4909528;28;20047;-78
2023/01/21 05:34:04;;;;;;;93.25;28.15;;;-0.60;99.90;;;-2.50;100.00;102457.13;4908012;28;20043;-78
2023/01/21 05:36:30;;;;;;;102.28;27.75;;;-0.60;99.90;;;-2.52;100.00;102458.78;4937302;28;20050;-78
2023/01/21 05:38:57;;;;;;;114.60;30.20;;;-0.70;99.90;;;-2.56;100.00;102452.63;4891819;28;20425;-78
2023/01/21 05:41:23;;;;;;;92.38;27.30;;;-0.70;99.90;;;-2.57;100.00;102457.72;4884735;28;20561;-78
2023/01/21 05:43:54;;;;;;;97.80;25.77;;;-0.70;99.90;;;-2.59;100.00;102457.69;4911679;28;20043;-77
2023/01/21 05:46:20;;;;;;;99.75;27.83;;;-0.80;99.90;;;-2.65;100.00;102451.44;4902377;28;20058;-77
2023/01/21 05:48:46;;;;;;;97.55;26.77;;;-0.80;99.90;;;-2.66;100.00;102454.81;4912060;28;20031;-76
2023/01/21 05:51:12;;;;;;;94.47;27.23;;;-0.80;99.90;;;-2.65;100.00;102454.03;4911250;28;20040;-78
2023/01/21 05:53:38;;;;;;;91.65;26.00;;;-0.80;99.90;;;-2.67;100.00;102453.97;4913436;28;20039;-77
2023/01/21 05:56:13;;;;;;;90.47;26.08;;;-0.80;99.90;;;-2.63;100.00;102467.84;4890592;28;20401;-77
2023/01/21 05:58:39;;;;;;;101.80;27.88;;;-0.80;99.90;;;-2.65;100.00;102465.22;4895298;28;20938;-77
2023/01/21 06:01:04;;;;;;;83.88;25.17;;;-0.80;99.90;;;-2.65;100.00;102460.06;4879225;28;20039;-78
2023/01/21 06:03:31;;;;;;;89.35;26.92;;;;;;;-2.66;100.00;102466.00;4864002;28;20408;-78
2023/01/21 06:06:05;;;;;;;81.15;23.08;;;-0.80;99.90;;;-2.64;100.00;102460.91;4917609;28;20042;-77
2023/01/21 06:08:33;;;;;;;91.97;25.75;;;-0.80;99.90;;;-2.61;100.00;102466.16;4885955;28;20388;-78
2023/01/21 06:10:58;;;;;;;81.53;25.40;;;-0.80;99.90;;;-2.62;100.00;102461.84;4895133;28;20121;-78
2023/01/21 06:13:31;;;;;;;60.40;20.27;;;-0.70;99.90;;;-2.60;100.00;102450.75;4914259;28;20027;-78
2023/01/21 06:15:57;;;;;;;88.90;26.10;;;-0.70;99.90;;;-2.52;100.00;102474.25;4929885;28;20603;-78
2023/01/21 06:18:23;;;;;;;111.38;28.63;;;-0.70;99.90;;;-2.46;100.00;102466.75;4886935;28;20030;-78
2023/01/21 06:20:49;;;;;;;91.80;26.63;;;-0.60;99.90;;;-2.35;100.00;102470.56;4910787;28;20049;-78
2023/01/21 06:23:16;;;;;;;98.05;28.48;;;-0.50;99.90;;;-2.28;100.00;102474.22;4907248;28;20034;-78
2023/01/21 06:25:47;;;;;;;87.78;24.92;;;-0.40;99.90;;;-2.21;100.00;102477.91;4906223;28;20575;-77
2023/01/21 06:28:13;;;;;;;79.55;23.70;;;-0.40;99.90;;;-2.13;100.00;102481.63;4918078;28;20023;-78
2023/01/21 06:30:39;;;;;;;91.82;28.17;;;-0.30;99.90;;;-2.06;100.00;102486.16;4867584;28;20039;-78
2023/01/21 06:33:04;;;;;;;88.97;27.55;;;-0.30;99.90;;;-1.96;100.00;102488.22;4893363;28;20069;-78
2023/01/21 06:35:30;;;;;;;101.40;30.35;;;-0.20;99.90;;;-1.89;100.00;102492.75;4917984;28;20040;-78
2023/01/21 06:38:01;;;;;;;106.05;27.33;;;-0.10;99.90;;;-1.87;100.00;102496.25;4912197;28;20067;-78
2023/01/21 06:40:27;;;;;;;108.43;28.50;;;-0.10;99.90;;;-1.86;100.00;102495.44;4907068;28;20055;-78
2023/01/21 06:42:53;;;;;;;111.07;30.88;;;-0.10;99.90;;;-1.83;100.00;102509.28;4900317;28;20033;-78
2023/01/21 06:45:19;;;;;;;102.50;29.02;;;-0.10;99.90;;;-1.82;100.00;102501.56;4884925;28;20270;-78
2023/01/21 06:47:45;;;;;;;110.95;28.80;;;0.00;99.90;;;-1.80;100.00;102509.38;4914625;28;20047;-78
2023/01/21 06:50:16;;;;;;;100.80;25.40;;;0.00;99.90;;;-1.86;100.00;102505.78;4906374;28;20676;-78
2023/01/21 06:52:45;;;;;;;103.43;29.00;;;0.00;99.90;;;-1.79;100.00;102509.44;4905955;28;20043;-78
2023/01/21 06:55:11;;;;;;;100.95;28.50;;;0.00;99.90;;;-1.72;100.00;102523.44;4904805;28;20058;-78
2023/01/21 06:57:38;;;;;;;103.07;28.70;;;0.10;99.90;;;-1.64;100.00;102519.41;4909895;28;20062;-78
2023/01/21 07:00:13;;;;;;;90.13;27.85;;;0.20;99.90;;;-1.56;100.00;102517.03;4917284;28;20028;-78
2023/01/21 07:02:39;;;;;;;95.30;27.92;;;0.20;99.90;;;-1.52;100.00;102529.22;4914188;28;20038;-78
2023/01/21 07:05:06;;;;;;;90.20;24.65;;;0.30;99.90;;;-1.49;100.00;102525.03;4924835;28;20075;-78
2023/01/21 07:07:37;;;;;;;105.22;28.23;;;0.30;99.90;;;-1.45;100.00;102529.47;4924140;28;20032;-78
2023/01/21 07:10:03;;;;;;;113.30;29.10;;;0.40;99.90;;;-1.37;100.00;102537.47;4941525;28;20089;-77
2023/01/21 07:12:29;;;;;;;102.20;28.83;;;0.40;99.90;;;-1.29;100.00;102528.25;4902267;28;20041;-78
2023/01/21 07:14:55;;;;;;;101.70;25.85;;;0.40;99.90;;;-1.33;100.00;102539.31;4933678;28;20036;-77
2023/01/21 07:17:21;;;;;;;96.43;27.08;;;0.50;99.90;;;-1.21;100.00;102531.06;4932496;28;20039;-78
2023/01/21 07:19:47;;;;;;;99.38;28.08;;;0.60;99.90;;;-1.12;100.00;102528.78;4937295;28;20058;-78
2023/01/21 07:22:13;;;;;;;83.63;25.17;;;0.60;99.90;;;-1.01;100.00;102535.97;4917969;28;20035;-78
2023/01/21 07:24:42;;;;;;;75.93;22.30;;;0.70;99.90;;;-0.95;100.00;102541.31;4909751;28;20166;-78
2023/01/21 07:27:08;;;;;;;64.90;19.70;;;0.80;99.90;;;-0.89;100.00;102541.50;4918434;28;20047;-77
2023/01/21 07:29:34;;;;;;;49.03;16.75;;;0.90;99.90;;;-0.76;100.00;102548.78;4903573;28;20036;-77
2023/01/21 07:31:59;;;;;;;34.15;13.70;;;1.00;99.90;;;-0.66;100.00;102544.75;4920372;28;20122;-77
2023/01/21 07:34:25;;;;;;;34.65;13.00;;;1.10;99.90;;;-0.55;100.00;102558.00;4929013;28;20530;-77
2023/01/21 07:36:51;;;;;;;29.77;12.05;;;1.20;99.90;;;-0.42;100.00;102560.09;4907166;28;20452;-77
2023/01/21 07:39:22;;;;;;;22.63;10.18;;;1.30;99.90;;;-0.32;100.00;102558.66;4896615;28;20129;-77
2023/01/21 07:41:48;;;;;;;26.13;10.70;;;1.40;99.90;;;-0.22;100.00;102568.41;4900812;28;20094;-78
2023/01/21 07:44:14;;;;;;;26.55;10.43;;;1.50;99.90;;;-0.11;100.00;102563.53;4903256;28;20444;-77
2023/01/21 07:46:39;;;;;;;25.75;10.10;;;1.60;99.90;;;-0.04;100.00;102568.06;4913601;28;21154;-78
2023/01/21 07:49:05;;;;;;;18.50;8.70;;;1.70;99.90;;;0.07;100.00;102561.44;4923435;28;20054;-78
2023/01/21 07:51:31;;;;;;;19.50;9.35;;;1.70;99.90;;;0.09;100.00;102558.91;4903399;28;20031;-78
2023/01/21 07:54:02;;;;;;;20.08;9.38;;;1.80;99.90;;;0.12;100.00;102565.00;4901702;28;20038;-78
2023/01/21 07:56:28;;;;;;;22.63;10.15;;;1.80;99.90;;;0.17;100.00;102560.84;4908695;28;20048;-78
2023/01/21 07:58:53;;;;;;;24.30;10.40;;;1.80;99.90;;;0.16;100.00;102559.09;4885394;28;20654;-78
2023/01/21 08:01:20;;;;;;;32.13;11.73;;;1.80;99.90;;;0.14;100.00;102565.94;4914360;28;20094;-79
2023/01/21 08:03:45;;;;;;;38.08;12.45;;;1.70;99.90;;;0.10;100.00;102556.31;4881102;28;20494;-78
2023/01/21 08:06:11;;;;;;;31.17;12.73;;;1.70;99.90;;;0.09;100.00;102562.34;4911199;28;20043;-78
2023/01/21 08:08:43;;;;;;;34.85;12.00;;;1.70;99.90;;;0.12;100.00;102553.78;4929102;28;20043;-77
2023/01/21 08:11:09;;;;;;;34.50;12.55;;;1.80;99.90;;;0.19;100.00;102559.19;4917681;28;20039;-77
2023/01/21 08:13:34;;;;;;;27.45;12.23;;;1.80;99.90;;;0.16;100.00;102558.22;4911534;28;20082;-79
2023/01/21 08:16:00;;;;;;;30.55;12.32;;;1.80;99.90;;;0.18;100.00;102554.81;4927636;28;20031;-76
2023/01/21 08:18:26;;;;;;;37.50;13.02;;;1.80;99.90;;;0.20;100.00;102547.97;4895609;28;20122;-80
2023/01/21 08:21:01;;;;;;;29.60;11.05;;;1.90;99.90;;;0.29;100.00;102551.63;4908010;28;20037;-77
2023/01/21 08:23:46;;;;;;;25.42;11.68;;;1.90;99.90;;;0.33;100.00;102556.06;4905607;28;20030;-81
2023/01/21 08:26:15;;;;;;;23.38;10.88;;;2.00;99.90;;;0.37;100.00;102553.56;4889883;28;20038;-80
2023/01/21 08:28:43;;;;;;;24.92;9.88;;;2.00;99.90;;;0.38;100.00;102557.03;4900811;28;20111;-79
2023/01/21 08:31:11;;;;;;;21.70;8.77;;;2.10;99.90;;;0.45;100.00;102561.50;4905347;28;20047;-79
2023/01/21 08:33:38;;;;;;;21.13;9.15;;;2.10;99.90;;;0.47;100.00;102567.63;4926345;28;20034;-78
2023/01/21 08:36:14;;;;;;;22.15;10.30;;;2.10;99.90;;;0.52;100.00;102562.53;4925980;28;20036;-79
2023/01/21 08:38:40;;;;;;;31.30;12.48;;;2.20;99.90;;;0.55;100.00;102566.09;4865387;28;20052;-81
2023/01/21 08:41:06;;;;;;;25.30;11.52;;;2.20;99.90;;;0.58;100.00;102565.28;4885309;28;20027;-80
2023/01/21 08:43:41;;;;;;;23.00;9.27;;;2.20;99.90;;;0.60;100.00;102571.38;4899646;28;20031;-80
2023/01/21 08:46:07;;;;;;;14.55;7.13;;;2.30;99.90;;;0.61;100.00;102584.41;4912268;28;20039;-81
2023/01/21 08:48:33;;;;;;;19.55;8.52;;;2.40;99.90;;;0.72;100.00;102581.19;4915274;28;20414;-81
2023/01/21 08:50:59;;;;;;;17.95;9.10;;;2.40;99.90;;;0.76;100.00;102585.63;4886404;28;20046;-80
2023/01/21 08:53:31;;;;;;;21.60;9.85;;;2.40;99.90;;;0.89;100.00;102576.41;4879643;28;20101;-81
2023/01/21 08:56:02;;;;;;;19.17;9.15;;;2.50;99.90;;;0.82;100.00;102588.31;4901604;28;20126;-80
2023/01/21 08:58:33;;;;;;;16.63;8.13;;;2.40;99.90;;;0.83;100.00;102579.72;4910467;28;20750;-80
2023/01/21 09:01:10;;;;;;;19.55;8.57;;;2.50;99.90;;;0.95;100.00;102579.09;4927390;28;20032;-80
2023/01/21 09:03:38;;;;;;;20.52;9.18;;;2.50;99.90;;;0.93;100.00;102581.69;4921747;28;20107;-79
2023/01/21 09:06:06;;;;;;;24.33;10.32;;;2.60;99.90;;;0.96;100.00;102586.94;4899132;28;20027;-79
2023/01/21 09:08:32;;;;;;;16.65;8.80;;;2.60;99.90;;;1.02;100.00;102584.47;4927421;28;20423;-79
2023/01/21 09:11:11;;;;;;;21.85;10.60;;;2.60;99.90;;;1.04;100.00;102581.94;4924623;28;20042;-79
2023/01/21 09:13:47;;;;;;;20.38;10.35;;;2.70;99.90;;;1.00;100.00;102580.97;4923302;28;20134;-79
2023/01/21 09:16:26;;;;;;;21.27;10.10;;;2.70;99.90;;;1.03;100.00;102581.03;4903905;28;20067;-79
2023/01/21 09:18:52;;;;;;;25.95;11.38;;;2.70;99.90;;;1.03;100.00;102588.81;4895038;28;20043;-80
2023/01/21 09:21:20;;;;;;;19.65;10.00;;;2.80;99.90;;;1.12;100.00;102590.75;4914106;28;20027;-79
2023/01/21 09:23:46;;;;;;;21.67;11.10;;;2.80;99.90;;;1.22;100.00;102592.69;4920347;28;20047;-78
2023/01/21 09:26:23;;;;;;;18.77;11.05;;;2.80;99.90;;;1.20;100.00;102593.53;4907082;28;20059;-78
2023/01/21 09:28:55;;;;;;;23.17;12.82;;;2.90;99.90;;;1.24;100.00;102597.94;4902483;28;20033;-78
2023/01/21 09:31:24;;;;;;;25.23;12.23;;;2.90;99.90;;;1.31;100.00;102592.03;4892609;28;20456;-78
2023/01/21 09:33:54;;;;;;;21.70;12.25;;;3.00;99.90;;;1.41;100.00;102593.97;4935455;28;20513;-78
2023/01/21 09:36:25;;;;;;;20.85;11.65;;;3.00;99.90;;;1.56;100.00;102598.63;4916616;28;20046;-77
2023/01/21 09:38:51;;;;;;;25.92;11.98;;;3.10;99.90;;;1.64;100.00;102597.06;4907049;28;21207;-78
2023/01/21 09:41:53;;;;;;;17.02;10.93;;;3.20;99.90;;;1.64;100.00;102590.97;4900744;28;20032;-77
2023/01/21 09:44:45;;;;;;;19.45;10.75;;;3.20;99.90;;;1.68;100.00;102589.31;4931477;28;20516;-77
2023/01/21 09:47:25;;;;;;;18.88;10.05;;;3.30;99.90;;;1.72;100.00;102592.00;4925806;28;20570;-77
2023/01/21 09:50:19;;;;;;;17.92;10.05;;;3.30;99.90;;;1.75;100.00;102586.00;4938767;28;20038;-77
2023/01/21 09:52:58;;;;;;;15.60;8.52;;;3.40;99.90;;;1.73;100.00;102585.09;4930397;28;20101;-77
2023/01/21 09:55:46;;;;;;;16.85;9.18;;;3.40;99.90;;;1.77;100.00;102587.81;4895305;28;20141;-76
2023/01/21 09:58:34;;;;;;;22.13;8.57;;;3.40;99.90;;;1.74;100.00;102586.84;4922373;28;20031;-77
2023/01/21 10:01:18;;;;;;;17.10;8.38;;;3.40;99.90;;;1.81;100.00;102593.91;4939309;28;20114;-77
2023/01/21 10:04:23;;;;;;;20.27;8.93;;;3.50;99.90;;;1.79;100.00;102591.31;4916074;28;21484;-77
2023/01/21 10:06:58;;;;;;;20.58;8.05;;;3.50;99.90;;;1.81;100.00;102597.41;4907596;28;20117;-77
2023/01/21 10:09:50;;;;;;;22.50;10.10;;;3.50;99.90;;;1.85;100.00;102587.94;4901963;28;20459;-78
2023/01/21 10:13:01;;;;;;;16.05;7.35;;;3.50;99.90;;;1.84;100.00;102579.28;4924379;28;20051;-78
2023/01/21 10:16:10;;;;;;;19.30;9.57;;;3.60;99.90;;;1.89;100.00;102581.09;4915507;28;20040;-77
2023/01/21 10:18:43;;;;;;;23.75;11.98;;;3.60;99.90;;;1.96;100.00;102578.59;4918296;28;20055;-79
2023/01/21 10:21:45;;;;;;;22.35;11.70;;;3.70;99.90;;;1.93;100.00;102582.91;4942608;28;20032;-78
2023/01/21 10:24:27;;;;;;;22.85;10.48;;;3.70;99.90;;;1.97;100.00;102588.16;4927064;28;20042;-77
2023/01/21 10:26:56;;;;;;;19.73;9.23;;;3.70;99.90;;;2.02;100.00;102593.44;4919892;28;20459;-78
2023/01/21 10:29:24;;;;;;;17.13;9.18;;;3.70;99.90;;;2.07;100.00;102581.41;4910597;28;20115;-79
2023/01/21 10:32:06;;;;;;;23.58;9.40;;;3.70;99.90;;;2.11;100.00;102575.41;4933089;28;20044;-79
2023/01/21 10:34:41;;;;;;;15.85;8.07;;;3.80;99.90;;;2.14;100.00;102590.19;4916732;28;20113;-81
2023/01/21 10:37:39;;;;;;;23.98;10.90;;;3.80;99.90;;;2.24;100.00;102592.97;4913411;28;20130;-81
2023/01/21 10:40:41;;;;;;;16.15;9.07;;;3.90;99.90;;;2.31;100.00;102590.50;4913333;28;20039;-82
2023/01/21 10:43:09;;;;;;;;;;;4.00;99.90;;;2.28;100.00;102593.91;4929182;28;20133;-81
2023/01/21 10:45:50;;;;;;;16.13;7.20;;;4.00;99.90;;;2.33;100.00;102594.00;4902174;28;19922;-79
2023/01/21 10:52:55;;;;;;;;;;;;;;;;;;;;;
2023/01/21 10:56:33;;;;;;;17.63;8.80;;;4.20;99.90;;;2.61;100.00;102593.63;4809750;29;20744;-88
2023/01/21 11:04:34;;;;;;;13.57;6.38;;;4.30;99.90;;;2.63;100.00;102584.09;4759865;29;20112;-87
2023/01/21 11:11:06;;;;;;;;;;;;;;;;;;;;;
2023/01/21 11:13:53;;;;;;;8.25;3.53;;;4.40;99.90;;;2.81;95.78;102585.28;4738115;30;20051;-85
2023/01/21 11:17:00;;;;;;;;;;;;;;;;;;;;;
2023/01/21 11:22:26;;;;;;;7.50;3.55;;;;;;;3.01;91.61;102581.22;4783761;29;20045;-86
2023/01/21 11:25:04;;;;;;;6.75;3.13;;;4.50;99.90;;;2.91;89.95;102579.31;4858271;29;20404;-86
2023/01/21 11:27:41;;;;;;;6.70;2.63;;;4.50;99.90;;;2.91;88.51;102571.53;4779491;29;20054;-88
2023/01/21 11:31:09;;;;;;;7.72;3.10;;;4.50;99.90;;;2.91;88.53;102579.31;4874402;28;21267;-86
2023/01/21 11:34:03;;;;;;;6.25;2.85;;;4.50;99.90;;;2.92;88.17;102573.28;4876668;28;20035;-86
2023/01/21 11:40:33;;;;;;;6.63;2.83;;;4.50;99.90;;;2.71;86.45;102559.97;4792341;28;20048;-84
2023/01/21 11:43:53;;;;;;;7.07;2.47;;;4.40;99.90;;;2.56;86.21;102561.47;4860803;28;20112;-85
2023/01/21 11:46:51;;;;;;;7.50;2.10;;;4.20;99.90;;;2.52;86.72;102564.00;4871747;23;20052;-84
2023/01/21 11:49:31;;;;;;;5.00;1.90;;;4.20;99.90;;;2.44;86.47;102556.03;4891604;28;20381;-88
2023/01/21 11:52:19;;;;;;;4.30;1.58;;;4.20;99.90;;;2.43;86.25;102565.59;4871410;28;20032;-85
2023/01/21 11:54:51;;;;;;;11.00;2.80;;;4.20;99.90;;;2.51;87.23;102552.72;4863924;29;20753;-85
2023/01/21 11:57:47;;;;;;;3.28;1.70;;;4.20;99.90;;;2.56;87.10;102553.66;4853654;28;20046;-85
2023/01/21 12:00:35;;;;;;;7.15;2.55;;;4.20;99.90;;;2.51;87.16;102560.53;4842075;29;20032;-84
2023/01/21 12:03:13;;;;;;;4.10;2.33;;;4.10;99.90;;;2.42;86.83;102548.25;4852315;29;20053;-84
2023/01/21 12:05:50;;;;;;;5.63;2.28;;;4.10;99.90;;;2.37;86.66;102549.88;4871010;28;20040;-83
2023/01/21 12:08:34;;;;;;;6.50;2.97;;;4.10;99.90;;;2.40;86.83;102547.34;4846783;29;20036;-83
2023/01/21 12:11:07;;;;;;;9.90;2.92;;;4.10;99.90;;;2.41;86.83;102543.00;4876157;28;20051;-85
2023/01/21 12:14:37;;;;;;;8.77;3.72;;;4.10;99.90;;;2.37;87.27;102538.59;4861187;28;20051;-84
2023/01/21 12:17:36;;;;;;;3.95;1.90;;;4.00;99.90;;;2.30;87.12;102529.84;4866471;28;20035;-82
2023/01/21 12:20:49;;;;;;;6.80;2.40;;;4.10;99.90;;;2.28;87.05;102539.34;4862062;28;20042;-84
2023/01/21 12:23:24;;;;;;;4.68;2.20;;;4.00;99.90;;;2.15;86.85;102540.84;4884897;28;20453;-83
2023/01/21 12:26:15;;;;;;;6.63;2.90;;;3.90;99.90;;;2.18;87.14;102537.41;4863356;28;20120;-83
2023/01/21 12:29:14;;;;;;;5.93;3.28;;;3.90;99.90;;;2.21;87.45;102538.34;4868767;28;20819;-84
2023/01/21 12:31:53;;;;;;;6.93;2.88;;;3.90;99.90;;;2.20;87.45;102544.41;4867999;28;20129;-83
2023/01/21 12:34:41;;;;;;;4.55;2.75;;;3.90;99.90;;;2.17;87.59;102541.75;4890803;28;20595;-84
2023/01/21 12:37:33;;;;;;;13.77;3.47;;;3.90;99.90;;;2.24;87.60;102534.94;4886509;28;25123;-82
2023/01/21 12:40:11;;;;;;;9.05;3.55;;;3.90;99.90;;;2.24;87.69;102533.19;4887294;28;20035;-83
2023/01/21 12:42:42;;;;;;;6.82;3.38;;;4.00;99.90;;;2.29;87.38;102537.59;4860276;29;20032;-83
2023/01/21 12:45:18;;;;;;;4.25;1.98;;;4.00;99.90;;;2.27;87.47;102532.41;4883205;23;20043;-83
2023/01/21 12:48:08;;;;;;;9.85;3.45;;;3.90;99.90;;;2.33;87.79;102531.59;4913010;28;20527;-83